sensor_id;sensor_type;location;lat;lon;timestamp;P1;durP1;ratioP1;P2;durP2;ratioP2
75730;SDS011;64350;47.450;19.124;2022-12-18T06:02:24;44.13;;;14.85;;
75730;SDS011;64350;47.450;19.124;2022-12-18T06:04:49;39.85;;;14.60;;
75730;SDS011;64350;47.450;19.124;2022-12-18T06:07:15;44.13;;;13.80;;
75730;SDS011;64350;47.450;19.124;2022-12-18T06:09:40;45.33;;;15.03;;
75730;SDS011;64350;47.450;19.124;2022-12-18T06:12:06;38.53;;;15.33;;
75730;SDS011;64350;47.450;19.124;2022-12-18T06:14:31;42.35;;;15.15;;
75730;SDS011;64350;47.450;19.124;2022-12-18T06:16:56;39.87;;;15.30;;
75730;SDS011;64350;47.450;19.124;2022-12-18T06:19:22;45.33;;;16.20;;
75730;SDS011;64350;47.450;19.124;2022-12-18T06:21:47;44.77;;;15.53;;
75730;SDS011;64350;47.450;19.124;2022-12-18T06:24:14;39.40;;;16.58;;
75730;SDS011;64350;47.450;19.124;2022-12-18T06:26:39;42.80;;;15.77;;
75730;SDS011;64350;47.450;19.124;2022-12-18T06:29:05;39.47;;;15.05;;
75730;SDS011;64350;47.450;19.124;2022-12-18T06:31:31;39.40;;;15.40;;
75730;SDS011;64350;47.450;19.124;2022-12-18T06:33:56;42.83;;;16.60;;
75730;SDS011;64350;47.450;19.124;2022-12-18T06:36:21;46.45;;;16.58;;
75730;SDS011;64350;47.450;19.124;2022-12-18T06:38:47;51.33;;;17.07;;
75730;SDS011;64350;47.450;19.124;2022-12-18T06:41:16;40.63;;;15.73;;
75730;SDS011;64350;47.450;19.124;2022-12-18T06:43:43;44.53;;;16.00;;
75730;SDS011;64350;47.450;19.124;2022-12-18T06:46:09;43.78;;;16.52;;
75730;SDS011;64350;47.450;19.124;2022-12-18T06:48:35;45.23;;;17.33;;
75730;SDS011;64350;47.450;19.124;2022-12-18T06:51:00;46.30;;;17.58;;
75730;SDS011;64350;47.450;19.124;2022-12-18T06:53:26;48.95;;;17.25;;
75730;SDS011;64350;47.450;19.124;2022-12-18T06:55:51;51.80;;;19.47;;
75730;SDS011;64350;47.450;19.124;2022-12-18T06:58:17;53.25;;;18.00;;
75730;SDS011;64350;47.450;19.124;2022-12-18T07:00:43;57.10;;;19.97;;
75730;SDS011;64350;47.450;19.124;2022-12-18T07:03:08;58.55;;;21.15;;
75730;SDS011;64350;47.450;19.124;2022-12-18T07:05:34;56.17;;;21.47;;
75730;SDS011;64350;47.450;19.124;2022-12-18T07:07:59;59.63;;;21.77;;
75730;SDS011;64350;47.450;19.124;2022-12-18T07:10:25;70.60;;;23.10;;
75730;SDS011;64350;47.450;19.124;2022-12-18T07:12:50;62.42;;;22.35;;
75730;SDS011;64350;47.450;19.124;2022-12-18T07:15:16;55.67;;;21.63;;
75730;SDS011;64350;47.450;19.124;2022-12-18T07:17:41;54.58;;;19.70;;
75730;SDS011;64350;47.450;19.124;2022-12-18T07:20:07;55.37;;;19.23;;
75730;SDS011;64350;47.450;19.124;2022-12-18T07:22:33;54.88;;;20.70;;
75730;SDS011;64350;47.450;19.124;2022-12-18T07:24:58;56.07;;;21.37;;
75730;SDS011;64350;47.450;19.124;2022-12-18T07:27:24;55.50;;;20.60;;
75730;SDS011;64350;47.450;19.124;2022-12-18T07:29:49;57.93;;;22.30;;
75730;SDS011;64350;47.450;19.124;2022-12-18T07:32:15;61.97;;;25.67;;
75730;SDS011;64350;47.450;19.124;2022-12-18T07:34:40;73.28;;;27.55;;
75730;SDS011;64350;47.450;19.124;2022-12-18T07:37:05;73.40;;;28.57;;
75730;SDS011;64350;47.450;19.124;2022-12-18T07:39:31;66.23;;;27.77;;
75730;SDS011;64350;47.450;19.124;2022-12-18T07:41:56;60.73;;;24.97;;
75730;SDS011;64350;47.450;19.124;2022-12-18T07:44:40;68.07;;;28.17;;
75730;SDS011;64350;47.450;19.124;2022-12-18T07:47:06;59.50;;;26.53;;
75730;SDS011;64350;47.450;19.124;2022-12-18T07:49:31;54.58;;;22.83;;
75730;SDS011;64350;47.450;19.124;2022-12-18T07:51:56;52.30;;;21.23;;
75730;SDS011;64350;47.450;19.124;2022-12-18T07:54:22;49.47;;;20.30;;
75730;SDS011;64350;47.450;19.124;2022-12-18T07:56:48;52.75;;;21.95;;
75730;SDS011;64350;47.450;19.124;2022-12-18T07:59:14;52.57;;;21.40;;
75730;SDS011;64350;47.450;19.124;2022-12-18T08:01:39;51.92;;;21.50;;
75730;SDS011;64350;47.450;19.124;2022-12-18T08:04:05;51.77;;;21.97;;
75730;SDS011;64350;47.450;19.124;2022-12-18T08:06:30;54.13;;;23.07;;
75730;SDS011;64350;47.450;19.124;2022-12-18T08:08:56;50.97;;;22.63;;
75730;SDS011;64350;47.450;19.124;2022-12-18T08:11:21;49.58;;;22.27;;
75730;SDS011;64350;47.450;19.124;2022-12-18T08:13:48;48.63;;;21.27;;
75730;SDS011;64350;47.450;19.124;2022-12-18T08:16:13;48.00;;;20.77;;
75730;SDS011;64350;47.450;19.124;2022-12-18T08:18:39;52.23;;;21.30;;
75730;SDS011;64350;47.450;19.124;2022-12-18T08:21:08;46.90;;;20.47;;
75730;SDS011;64350;47.450;19.124;2022-12-18T08:23:37;47.67;;;20.02;;
75730;SDS011;64350;47.450;19.124;2022-12-18T08:26:03;47.40;;;18.65;;
75730;SDS011;64350;47.450;19.124;2022-12-18T08:28:29;48.73;;;20.37;;
75730;SDS011;64350;47.450;19.124;2022-12-18T08:30:54;46.77;;;18.83;;
75730;SDS011;64350;47.450;19.124;2022-12-18T08:33:20;43.73;;;19.57;;
75730;SDS011;64350;47.450;19.124;2022-12-18T08:35:45;43.50;;;18.43;;
75730;SDS011;64350;47.450;19.124;2022-12-18T08:38:10;45.30;;;19.03;;
75730;SDS011;64350;47.450;19.124;2022-12-18T08:40:36;46.57;;;19.23;;
75730;SDS011;64350;47.450;19.124;2022-12-18T08:43:01;40.23;;;17.97;;
75730;SDS011;64350;47.450;19.124;2022-12-18T08:45:45;44.07;;;17.73;;
75730;SDS011;64350;47.450;19.124;2022-12-18T08:48:10;49.75;;;21.02;;
75730;SDS011;64350;47.450;19.124;2022-12-18T08:50:36;48.60;;;20.53;;
75730;SDS011;64350;47.450;19.124;2022-12-18T08:53:01;47.77;;;21.00;;
75730;SDS011;64350;47.450;19.124;2022-12-18T08:55:27;46.83;;;19.50;;
75730;SDS011;64350;47.450;19.124;2022-12-18T08:57:52;46.10;;;17.98;;
75730;SDS011;64350;47.450;19.124;2022-12-18T09:00:18;45.37;;;18.97;;
75730;SDS011;64350;47.450;19.124;2022-12-18T09:02:43;53.03;;;20.40;;
75730;SDS011;64350;47.450;19.124;2022-12-18T09:05:08;46.17;;;17.97;;
75730;SDS011;64350;47.450;19.124;2022-12-18T09:07:34;49.35;;;20.08;;
75730;SDS011;64350;47.450;19.124;2022-12-18T09:10:00;46.53;;;19.90;;
75730;SDS011;64350;47.450;19.124;2022-12-18T09:12:25;51.73;;;21.27;;
75730;SDS011;64350;47.450;19.124;2022-12-18T09:14:51;51.22;;;20.58;;
75730;SDS011;64350;47.450;19.124;2022-12-18T09:17:16;49.50;;;21.40;;
75730;SDS011;64350;47.450;19.124;2022-12-18T09:19:41;51.93;;;22.23;;
75730;SDS011;64350;47.450;19.124;2022-12-18T09:22:07;54.83;;;21.93;;
75730;SDS011;64350;47.450;19.124;2022-12-18T09:24:32;50.53;;;20.52;;
75730;SDS011;64350;47.450;19.124;2022-12-18T09:26:57;48.60;;;19.83;;
75730;SDS011;64350;47.450;19.124;2022-12-18T09:29:23;51.77;;;22.07;;
75730;SDS011;64350;47.450;19.124;2022-12-18T09:31:49;52.10;;;21.33;;
75730;SDS011;64350;47.450;19.124;2022-12-18T09:34:15;51.07;;;20.40;;
75730;SDS011;64350;47.450;19.124;2022-12-18T09:36:41;48.38;;;21.62;;
75730;SDS011;64350;47.450;19.124;2022-12-18T09:39:06;51.60;;;21.17;;
75730;SDS011;64350;47.450;19.124;2022-12-18T09:46:54;49.63;;;21.17;;
75730;SDS011;64350;47.450;19.124;2022-12-18T09:49:35;53.50;;;20.45;;
75730;SDS011;64350;47.450;19.124;2022-12-18T09:52:49;45.50;;;20.62;;
75730;SDS011;64350;47.450;19.124;2022-12-18T09:54:56;53.45;;;23.08;;
75730;SDS011;64350;47.450;19.124;2022-12-18T09:57:25;45.77;;;21.93;;
75730;SDS011;64350;47.450;19.124;2022-12-18T10:02:43;48.90;;;21.60;;
75730;SDS011;64350;47.450;19.124;2022-12-18T10:05:16;46.00;;;21.50;;
75730;SDS011;64350;47.450;19.124;2022-12-18T10:07:46;48.07;;;22.27;;
75730;SDS011;64350;47.450;19.124;2022-12-18T10:21:00;47.57;;;21.73;;
75730;SDS011;64350;47.450;19.124;2022-12-18T10:26:33;46.15;;;21.87;;
75730;SDS011;64350;47.450;19.124;2022-12-18T10:28:59;45.60;;;22.60;;
75730;SDS011;64350;47.450;19.124;2022-12-18T10:31:25;45.87;;;22.97;;
75730;SDS011;64350;47.450;19.124;2022-12-18T10:34:11;50.83;;;22.90;;
75730;SDS011;64350;47.450;19.124;2022-12-18T10:36:39;43.60;;;21.73;;
75730;SDS011;64350;47.450;19.124;2022-12-18T10:39:21;43.93;;;20.87;;
75730;SDS011;64350;47.450;19.124;2022-12-18T10:41:51;41.55;;;21.45;;
75730;SDS011;64350;47.450;19.124;2022-12-18T10:44:21;42.72;;;22.27;;
75730;SDS011;64350;47.450;19.124;2022-12-18T10:46:51;41.03;;;21.15;;
75730;SDS011;64350;47.450;19.124;2022-12-18T10:49:27;41.03;;;21.30;;
75730;SDS011;64350;47.450;19.124;2022-12-18T10:52:11;45.33;;;21.70;;
75730;SDS011;64350;47.450;19.124;2022-12-18T10:54:45;38.28;;;19.23;;
75730;SDS011;64350;47.450;19.124;2022-12-18T11:02:52;40.45;;;21.92;;
75730;SDS011;64350;47.450;19.124;2022-12-18T11:05:33;42.50;;;20.90;;
75730;SDS011;64350;47.450;19.124;2022-12-18T11:07:59;42.17;;;20.58;;
75730;SDS011;64350;47.450;19.124;2022-12-18T11:10:30;40.05;;;20.42;;
75730;SDS011;64350;47.450;19.124;2022-12-18T11:13:08;37.03;;;18.08;;
75730;SDS011;64350;47.450;19.124;2022-12-18T11:15:45;34.42;;;18.65;;
75730;SDS011;64350;47.450;19.124;2022-12-18T11:18:18;36.33;;;18.63;;
75730;SDS011;64350;47.450;19.124;2022-12-18T11:20:52;35.55;;;17.15;;
75730;SDS011;64350;47.450;19.124;2022-12-18T11:23:25;33.22;;;16.50;;
75730;SDS011;64350;47.450;19.124;2022-12-18T11:25:51;39.28;;;17.65;;
75730;SDS011;64350;47.450;19.124;2022-12-18T11:28:38;31.63;;;16.23;;
75730;SDS011;64350;47.450;19.124;2022-12-18T11:31:23;30.48;;;15.35;;
75730;SDS011;64350;47.450;19.124;2022-12-18T11:36:45;32.08;;;16.45;;
75730;SDS011;64350;47.450;19.124;2022-12-18T11:39:17;35.53;;;17.42;;
75730;SDS011;64350;47.450;19.124;2022-12-18T11:41:54;34.93;;;17.90;;
75730;SDS011;64350;47.450;19.124;2022-12-18T11:44:41;36.72;;;18.12;;
75730;SDS011;64350;47.450;19.124;2022-12-18T11:49:37;34.65;;;17.90;;
75730;SDS011;64350;47.450;19.124;2022-12-18T11:54:29;41.27;;;19.67;;
75730;SDS011;64350;47.450;19.124;2022-12-18T11:59:33;45.97;;;20.52;;
75730;SDS011;64350;47.450;19.124;2022-12-18T12:05:00;41.40;;;20.10;;
75730;SDS011;64350;47.450;19.124;2022-12-18T12:13:18;41.22;;;20.62;;
75730;SDS011;64350;47.450;19.124;2022-12-18T12:38:00;42.62;;;20.60;;
75730;SDS011;64350;47.450;19.124;2022-12-18T12:40:37;43.25;;;21.10;;
75730;SDS011;64350;47.450;19.124;2022-12-18T12:43:19;41.85;;;20.80;;
75730;SDS011;64350;47.450;19.124;2022-12-18T12:45:53;46.33;;;21.53;;
75730;SDS011;64350;47.450;19.124;2022-12-18T12:51:06;52.72;;;25.00;;
75730;SDS011;64350;47.450;19.124;2022-12-18T12:53:35;50.05;;;23.15;;
75730;SDS011;64350;47.450;19.124;2022-12-18T12:56:02;53.78;;;23.85;;
75730;SDS011;64350;47.450;19.124;2022-12-18T12:58:31;46.93;;;21.00;;
75730;SDS011;64350;47.450;19.124;2022-12-18T13:03:46;45.58;;;21.90;;
75730;SDS011;64350;47.450;19.124;2022-12-18T13:06:36;50.33;;;21.77;;
75730;SDS011;64350;47.450;19.124;2022-12-18T13:09:08;45.95;;;20.05;;
75730;SDS011;64350;47.450;19.124;2022-12-18T13:11:43;49.23;;;23.17;;
75730;SDS011;64350;47.450;19.124;2022-12-18T13:14:35;52.75;;;21.60;;
75730;SDS011;64350;47.450;19.124;2022-12-18T13:22:38;47.28;;;21.60;;
75730;SDS011;64350;47.450;19.124;2022-12-18T13:28:15;44.78;;;19.17;;
75730;SDS011;64350;47.450;19.124;2022-12-18T13:30:55;46.00;;;20.27;;
75730;SDS011;64350;47.450;19.124;2022-12-18T13:35:58;46.00;;;18.90;;
75730;SDS011;64350;47.450;19.124;2022-12-18T13:40:56;43.87;;;19.58;;
75730;SDS011;64350;47.450;19.124;2022-12-18T13:43:23;49.03;;;20.08;;
75730;SDS011;64350;47.450;19.124;2022-12-18T13:48:34;41.37;;;18.92;;
75730;SDS011;64350;47.450;19.124;2022-12-18T13:51:03;44.83;;;19.12;;
75730;SDS011;64350;47.450;19.124;2022-12-18T13:53:32;41.40;;;17.20;;
75730;SDS011;64350;47.450;19.124;2022-12-18T13:56:01;37.90;;;16.30;;
75730;SDS011;64350;47.450;19.124;2022-12-18T13:58:27;35.73;;;15.53;;
75730;SDS011;64350;47.450;19.124;2022-12-18T14:00:53;41.37;;;17.25;;
75730;SDS011;64350;47.450;19.124;2022-12-18T14:03:23;42.23;;;17.63;;
75730;SDS011;64350;47.450;19.124;2022-12-18T14:05:54;43.17;;;18.80;;
75730;SDS011;64350;47.450;19.124;2022-12-18T14:08:21;51.07;;;21.47;;
75730;SDS011;64350;47.450;19.124;2022-12-18T14:10:47;43.22;;;19.00;;
75730;SDS011;64350;47.450;19.124;2022-12-18T14:13:23;56.35;;;24.08;;
75730;SDS011;64350;47.450;19.124;2022-12-18T14:15:52;59.43;;;24.27;;
75730;SDS011;64350;47.450;19.124;2022-12-18T14:18:25;52.03;;;21.65;;
75730;SDS011;64350;47.450;19.124;2022-12-18T14:20:55;47.50;;;19.58;;
75730;SDS011;64350;47.450;19.124;2022-12-18T14:23:29;46.92;;;20.52;;
75730;SDS011;64350;47.450;19.124;2022-12-18T14:25:55;46.60;;;19.62;;
75730;SDS011;64350;47.450;19.124;2022-12-18T14:28:21;49.50;;;21.33;;
75730;SDS011;64350;47.450;19.124;2022-12-18T14:30:50;53.15;;;21.23;;
75730;SDS011;64350;47.450;19.124;2022-12-18T14:36:01;50.60;;;21.45;;
75730;SDS011;64350;47.450;19.124;2022-12-18T14:38:32;54.70;;;22.60;;
75730;SDS011;64350;47.450;19.124;2022-12-18T14:43:34;49.92;;;20.85;;
75730;SDS011;64350;47.450;19.124;2022-12-18T14:46:00;51.95;;;21.52;;
75730;SDS011;64350;47.450;19.124;2022-12-18T14:56:14;56.95;;;23.45;;
75730;SDS011;64350;47.450;19.124;2022-12-18T14:58:54;54.90;;;21.98;;
75730;SDS011;64350;47.450;19.124;2022-12-18T15:01:22;51.60;;;22.20;;
75730;SDS011;64350;47.450;19.124;2022-12-18T15:03:53;50.72;;;22.98;;
75730;SDS011;64350;47.450;19.124;2022-12-18T15:06:26;48.10;;;21.73;;
75730;SDS011;64350;47.450;19.124;2022-12-18T15:08:54;63.20;;;26.05;;
75730;SDS011;64350;47.450;19.124;2022-12-18T15:12:02;57.20;;;24.30;;
75730;SDS011;64350;47.450;19.124;2022-12-18T15:16:55;57.15;;;24.37;;
75730;SDS011;64350;47.450;19.124;2022-12-18T15:19:21;56.33;;;25.93;;
75730;SDS011;64350;47.450;19.124;2022-12-18T15:21:47;66.12;;;26.62;;
75730;SDS011;64350;47.450;19.124;2022-12-18T15:24:22;69.77;;;28.70;;
75730;SDS011;64350;47.450;19.124;2022-12-18T15:26:51;67.18;;;28.58;;
75730;SDS011;64350;47.450;19.124;2022-12-18T15:29:19;66.13;;;27.97;;
75730;SDS011;64350;47.450;19.124;2022-12-18T15:31:58;65.85;;;27.55;;
75730;SDS011;64350;47.450;19.124;2022-12-18T15:34:24;66.70;;;26.67;;
75730;SDS011;64350;47.450;19.124;2022-12-18T15:36:53;67.47;;;27.98;;
75730;SDS011;64350;47.450;19.124;2022-12-18T15:39:18;68.90;;;26.97;;
75730;SDS011;64350;47.450;19.124;2022-12-18T15:41:43;63.97;;;27.37;;
75730;SDS011;64350;47.450;19.124;2022-12-18T15:44:29;62.00;;;25.48;;
75730;SDS011;64350;47.450;19.124;2022-12-18T15:46:54;69.07;;;27.10;;
75730;SDS011;64350;47.450;19.124;2022-12-18T15:49:20;65.40;;;28.93;;
75730;SDS011;64350;47.450;19.124;2022-12-18T15:51:45;70.53;;;30.17;;
75730;SDS011;64350;47.450;19.124;2022-12-18T15:54:19;77.17;;;31.90;;
75730;SDS011;64350;47.450;19.124;2022-12-18T15:57:04;79.53;;;31.48;;
75730;SDS011;64350;47.450;19.124;2022-12-18T15:59:48;77.18;;;32.90;;
75730;SDS011;64350;47.450;19.124;2022-12-18T16:02:15;72.62;;;31.60;;
75730;SDS011;64350;47.450;19.124;2022-12-18T16:04:42;78.45;;;31.98;;
75730;SDS011;64350;47.450;19.124;2022-12-18T16:07:07;76.00;;;31.33;;
75730;SDS011;64350;47.450;19.124;2022-12-18T16:09:33;80.47;;;32.43;;
75730;SDS011;64350;47.450;19.124;2022-12-18T16:12:00;85.77;;;37.00;;
75730;SDS011;64350;47.450;19.124;2022-12-18T16:14:26;82.13;;;34.13;;
75730;SDS011;64350;47.450;19.124;2022-12-18T16:16:54;87.53;;;36.00;;
75730;SDS011;64350;47.450;19.124;2022-12-18T16:19:21;84.90;;;34.83;;
75730;SDS011;64350;47.450;19.124;2022-12-18T16:21:47;81.75;;;34.38;;
75730;SDS011;64350;47.450;19.124;2022-12-18T16:24:19;75.68;;;33.47;;
75730;SDS011;64350;47.450;19.124;2022-12-18T16:26:49;83.03;;;35.47;;
75730;SDS011;64350;47.450;19.124;2022-12-18T16:29:18;86.80;;;35.47;;
75730;SDS011;64350;47.450;19.124;2022-12-18T16:31:49;83.35;;;34.92;;
75730;SDS011;64350;47.450;19.124;2022-12-18T16:36:54;80.50;;;32.28;;
75730;SDS011;64350;47.450;19.124;2022-12-18T16:39:27;75.43;;;32.97;;
75730;SDS011;64350;47.450;19.124;2022-12-18T16:41:52;81.63;;;33.93;;
75730;SDS011;64350;47.450;19.124;2022-12-18T16:44:18;78.57;;;33.08;;
75730;SDS011;64350;47.450;19.124;2022-12-18T16:46:45;83.57;;;31.83;;
75730;SDS011;64350;47.450;19.124;2022-12-18T16:49:11;77.70;;;32.17;;
75730;SDS011;64350;47.450;19.124;2022-12-18T16:51:37;78.00;;;33.35;;
75730;SDS011;64350;47.450;19.124;2022-12-18T16:54:03;82.32;;;34.40;;
75730;SDS011;64350;47.450;19.124;2022-12-18T16:56:29;76.63;;;33.97;;
75730;SDS011;64350;47.450;19.124;2022-12-18T16:58:55;84.00;;;33.60;;
75730;SDS011;64350;47.450;19.124;2022-12-18T17:01:22;82.50;;;34.28;;
75730;SDS011;64350;47.450;19.124;2022-12-18T17:03:51;86.25;;;35.00;;
75730;SDS011;64350;47.450;19.124;2022-12-18T17:06:18;90.18;;;34.88;;
75730;SDS011;64350;47.450;19.124;2022-12-18T17:08:43;81.40;;;35.67;;
75730;SDS011;64350;47.450;19.124;2022-12-18T17:11:09;84.65;;;34.67;;
75730;SDS011;64350;47.450;19.124;2022-12-18T17:13:34;83.17;;;37.20;;
75730;SDS011;64350;47.450;19.124;2022-12-18T17:16:03;90.60;;;35.67;;
75730;SDS011;64350;47.450;19.124;2022-12-18T17:18:30;83.25;;;35.97;;
75730;SDS011;64350;47.450;19.124;2022-12-18T17:21:02;91.87;;;38.23;;
75730;SDS011;64350;47.450;19.124;2022-12-18T17:23:29;87.37;;;35.67;;
75730;SDS011;64350;47.450;19.124;2022-12-18T17:25:55;92.83;;;36.73;;
75730;SDS011;64350;47.450;19.124;2022-12-18T17:28:25;94.85;;;38.97;;
75730;SDS011;64350;47.450;19.124;2022-12-18T17:30:52;95.15;;;38.67;;
75730;SDS011;64350;47.450;19.124;2022-12-18T17:33:18;102.97;;;39.05;;
75730;SDS011;64350;47.450;19.124;2022-12-18T17:35:43;90.97;;;38.37;;
75730;SDS011;64350;47.450;19.124;2022-12-18T17:38:09;102.90;;;39.72;;
75730;SDS011;64350;47.450;19.124;2022-12-18T17:40:34;100.27;;;38.63;;
75730;SDS011;64350;47.450;19.124;2022-12-18T17:43:00;106.33;;;41.27;;
75730;SDS011;64350;47.450;19.124;2022-12-18T17:45:25;102.13;;;40.80;;
75730;SDS011;64350;47.450;19.124;2022-12-18T17:47:50;96.20;;;40.47;;
75730;SDS011;64350;47.450;19.124;2022-12-18T17:50:16;98.30;;;41.90;;
75730;SDS011;64350;47.450;19.124;2022-12-18T17:52:41;90.77;;;37.93;;
75730;SDS011;64350;47.450;19.124;2022-12-18T17:55:07;96.97;;;38.87;;
75730;SDS011;64350;47.450;19.124;2022-12-18T17:57:33;96.60;;;39.75;;
75730;SDS011;64350;47.450;19.124;2022-12-18T17:59:58;101.93;;;40.87;;
75730;SDS011;64350;47.450;19.124;2022-12-18T18:02:24;99.40;;;43.00;;
75730;SDS011;64350;47.450;19.124;2022-12-18T18:04:49;91.73;;;39.83;;
75730;SDS011;64350;47.450;19.124;2022-12-18T18:07:18;99.50;;;40.30;;
75730;SDS011;64350;47.450;19.124;2022-12-18T18:09:43;95.35;;;40.20;;
75730;SDS011;64350;47.450;19.124;2022-12-18T18:12:09;90.23;;;37.20;;
75730;SDS011;64350;47.450;19.124;2022-12-18T18:14:53;85.38;;;37.03;;
75730;SDS011;64350;47.450;19.124;2022-12-18T18:17:18;85.97;;;36.17;;
75730;SDS011;64350;47.450;19.124;2022-12-18T18:19:43;90.60;;;37.58;;
75730;SDS011;64350;47.450;19.124;2022-12-18T18:22:09;90.40;;;37.50;;
75730;SDS011;64350;47.450;19.124;2022-12-18T18:24:34;86.27;;;36.17;;
75730;SDS011;64350;47.450;19.124;2022-12-18T18:27:00;81.50;;;34.97;;
75730;SDS011;64350;47.450;19.124;2022-12-18T18:29:26;89.43;;;36.65;;
75730;SDS011;64350;47.450;19.124;2022-12-18T18:31:52;84.17;;;36.53;;
75730;SDS011;64350;47.450;19.124;2022-12-18T18:34:19;94.65;;;38.50;;
75730;SDS011;64350;47.450;19.124;2022-12-18T18:36:46;85.90;;;37.40;;
75730;SDS011;64350;47.450;19.124;2022-12-18T18:39:12;95.75;;;39.22;;
75730;SDS011;64350;47.450;19.124;2022-12-18T18:41:38;90.70;;;37.10;;
75730;SDS011;64350;47.450;19.124;2022-12-18T18:44:03;90.55;;;38.03;;
75730;SDS011;64350;47.450;19.124;2022-12-18T18:46:29;90.67;;;36.97;;
75730;SDS011;64350;47.450;19.124;2022-12-18T18:48:54;83.33;;;37.17;;
75730;SDS011;64350;47.450;19.124;2022-12-18T18:51:20;96.78;;;40.40;;
75730;SDS011;64350;47.450;19.124;2022-12-18T18:53:47;91.10;;;37.70;;
75730;SDS011;64350;47.450;19.124;2022-12-18T18:56:14;100.35;;;39.72;;
75730;SDS011;64350;47.450;19.124;2022-12-18T18:58:41;87.25;;;37.88;;
75730;SDS011;64350;47.450;19.124;2022-12-18T19:01:09;88.78;;;37.70;;
75730;SDS011;64350;47.450;19.124;2022-12-18T19:03:36;96.55;;;37.15;;
75730;SDS011;64350;47.450;19.124;2022-12-18T19:06:03;94.75;;;38.00;;
75730;SDS011;64350;47.450;19.124;2022-12-18T19:08:30;86.28;;;37.75;;
75730;SDS011;64350;47.450;19.124;2022-12-18T19:10:58;99.15;;;39.78;;
75730;SDS011;64350;47.450;19.124;2022-12-18T19:13:25;97.22;;;39.92;;
75730;SDS011;64350;47.450;19.124;2022-12-18T19:15:54;93.65;;;39.78;;
75730;SDS011;64350;47.450;19.124;2022-12-18T19:18:21;95.30;;;39.97;;
75730;SDS011;64350;47.450;19.124;2022-12-18T19:21:00;89.85;;;40.50;;
75730;SDS011;64350;47.450;19.124;2022-12-18T19:23:27;98.50;;;39.80;;
75730;SDS011;64350;47.450;19.124;2022-12-18T19:25:52;97.93;;;39.85;;
75730;SDS011;64350;47.450;19.124;2022-12-18T19:28:24;95.95;;;39.78;;
75730;SDS011;64350;47.450;19.124;2022-12-18T19:30:51;101.25;;;40.38;;
75730;SDS011;64350;47.450;19.124;2022-12-18T19:33:19;97.97;;;38.63;;
75730;SDS011;64350;47.450;19.124;2022-12-18T19:35:45;100.93;;;41.65;;
75730;SDS011;64350;47.450;19.124;2022-12-18T19:38:10;98.00;;;40.87;;
75730;SDS011;64350;47.450;19.124;2022-12-18T19:40:39;96.40;;;39.78;;
75730;SDS011;64350;47.450;19.124;2022-12-18T19:43:05;104.07;;;40.13;;
75730;SDS011;64350;47.450;19.124;2022-12-18T19:45:30;90.93;;;39.72;;
75730;SDS011;64350;47.450;19.124;2022-12-18T19:47:57;93.33;;;38.77;;
75730;SDS011;64350;47.450;19.124;2022-12-18T19:50:24;101.80;;;41.42;;
75730;SDS011;64350;47.450;19.124;2022-12-18T19:52:49;107.53;;;40.73;;
75730;SDS011;64350;47.450;19.124;2022-12-18T19:55:15;99.28;;;41.08;;
75730;SDS011;64350;47.450;19.124;2022-12-18T19:57:41;99.20;;;41.53;;
75730;SDS011;64350;47.450;19.124;2022-12-18T20:00:06;93.10;;;41.87;;
75730;SDS011;64350;47.450;19.124;2022-12-18T20:02:33;86.35;;;37.83;;
75730;SDS011;64350;47.450;19.124;2022-12-18T20:05:01;96.90;;;40.65;;
75730;SDS011;64350;47.450;19.124;2022-12-18T20:07:30;105.90;;;42.85;;
75730;SDS011;64350;47.450;19.124;2022-12-18T20:09:55;108.07;;;44.27;;
75730;SDS011;64350;47.450;19.124;2022-12-18T20:12:21;112.28;;;45.67;;
75730;SDS011;64350;47.450;19.124;2022-12-18T20:14:47;102.13;;;42.07;;
75730;SDS011;64350;47.450;19.124;2022-12-18T20:17:12;109.60;;;44.60;;
75730;SDS011;64350;47.450;19.124;2022-12-18T20:19:37;109.50;;;46.15;;
75730;SDS011;64350;47.450;19.124;2022-12-18T20:22:03;103.03;;;41.80;;
75730;SDS011;64350;47.450;19.124;2022-12-18T20:24:28;101.13;;;43.53;;
75730;SDS011;64350;47.450;19.124;2022-12-18T20:26:54;109.20;;;45.23;;
75730;SDS011;64350;47.450;19.124;2022-12-18T20:29:19;107.12;;;45.53;;
75730;SDS011;64350;47.450;19.124;2022-12-18T20:31:45;109.27;;;47.03;;
75730;SDS011;64350;47.450;19.124;2022-12-18T20:34:10;121.27;;;45.73;;
75730;SDS011;64350;47.450;19.124;2022-12-18T20:36:36;115.43;;;46.40;;
75730;SDS011;64350;47.450;19.124;2022-12-18T20:39:02;106.53;;;43.60;;
75730;SDS011;64350;47.450;19.124;2022-12-18T20:41:28;114.10;;;47.65;;
75730;SDS011;64350;47.450;19.124;2022-12-18T20:43:53;132.13;;;49.87;;
75730;SDS011;64350;47.450;19.124;2022-12-18T20:46:19;133.00;;;48.93;;
75730;SDS011;64350;47.450;19.124;2022-12-18T20:48:50;132.25;;;49.53;;
75730;SDS011;64350;47.450;19.124;2022-12-18T20:51:17;115.50;;;49.67;;
75730;SDS011;64350;47.450;19.124;2022-12-18T20:53:43;112.53;;;46.10;;
75730;SDS011;64350;47.450;19.124;2022-12-18T20:56:11;110.60;;;44.13;;
75730;SDS011;64350;47.450;19.124;2022-12-18T20:58:37;111.13;;;45.23;;
75730;SDS011;64350;47.450;19.124;2022-12-18T21:01:04;108.35;;;46.78;;
75730;SDS011;64350;47.450;19.124;2022-12-18T21:03:31;118.63;;;48.93;;
75730;SDS011;64350;47.450;19.124;2022-12-18T21:05:56;110.05;;;47.45;;
75730;SDS011;64350;47.450;19.124;2022-12-18T21:08:22;122.97;;;51.30;;
75730;SDS011;64350;47.450;19.124;2022-12-18T21:10:47;112.63;;;51.70;;
75730;SDS011;64350;47.450;19.124;2022-12-18T21:13:12;130.67;;;53.70;;
75730;SDS011;64350;47.450;19.124;2022-12-18T21:15:38;112.23;;;49.37;;
75730;SDS011;64350;47.450;19.124;2022-12-18T21:18:03;118.00;;;50.83;;
75730;SDS011;64350;47.450;19.124;2022-12-18T21:20:28;125.55;;;52.00;;
75730;SDS011;64350;47.450;19.124;2022-12-18T21:22:54;116.78;;;49.47;;
75730;SDS011;64350;47.450;19.124;2022-12-18T21:25:19;109.30;;;46.87;;
75730;SDS011;64350;47.450;19.124;2022-12-18T21:27:45;108.57;;;44.10;;
75730;SDS011;64350;47.450;19.124;2022-12-18T21:30:10;102.57;;;43.57;;
75730;SDS011;64350;47.450;19.124;2022-12-18T21:32:36;106.32;;;44.08;;
75730;SDS011;64350;47.450;19.124;2022-12-18T21:35:01;102.63;;;43.40;;
75730;SDS011;64350;47.450;19.124;2022-12-18T21:37:27;100.55;;;43.08;;
75730;SDS011;64350;47.450;19.124;2022-12-18T21:39:53;100.80;;;39.13;;
75730;SDS011;64350;47.450;19.124;2022-12-18T21:42:18;99.83;;;38.53;;
75730;SDS011;64350;47.450;19.124;2022-12-18T21:45:02;95.78;;;38.90;;
75730;SDS011;64350;47.450;19.124;2022-12-18T21:47:31;98.53;;;39.92;;
